sensor_id;sensor_type;location;lat;lon;timestamp;P1;durP1;ratioP1;P2;durP2;ratioP2
64649;SDS011;51061;45.258;38.112;2022-09-09T00:03:50;22.93;;;8.60;;
64649;SDS011;51061;45.258;38.112;2022-09-09T00:06:43;22.30;;;8.53;;
64649;SDS011;51061;45.258;38.112;2022-09-09T00:09:22;24.03;;;8.07;;
64649;SDS011;51061;45.258;38.112;2022-09-09T00:12:12;22.20;;;8.20;;
64649;SDS011;51061;45.258;38.112;2022-09-09T00:15:00;22.20;;;7.70;;
64649;SDS011;51061;45.258;38.112;2022-09-09T00:17:35;22.10;;;8.30;;
64649;SDS011;51061;45.258;38.112;2022-09-09T00:20:09;31.07;;;8.37;;
64649;SDS011;51061;45.258;38.112;2022-09-09T00:22:40;27.57;;;7.63;;
64649;SDS011;51061;45.258;38.112;2022-09-09T00:25:23;21.77;;;8.00;;
64649;SDS011;51061;45.258;38.112;2022-09-09T00:27:55;25.23;;;7.97;;
64649;SDS011;51061;45.258;38.112;2022-09-09T00:32:58;23.70;;;7.90;;
64649;SDS011;51061;45.258;38.112;2022-09-09T00:35:31;22.80;;;8.00;;
64649;SDS011;51061;45.258;38.112;2022-09-09T00:38:02;26.43;;;8.37;;
64649;SDS011;51061;45.258;38.112;2022-09-09T00:40:42;33.60;;;7.63;;
64649;SDS011;51061;45.258;38.112;2022-09-09T00:43:35;29.50;;;8.00;;
64649;SDS011;51061;45.258;38.112;2022-09-09T00:46:12;25.00;;;8.07;;
64649;SDS011;51061;45.258;38.112;2022-09-09T00:57:35;28.40;;;9.23;;
64649;SDS011;51061;45.258;38.112;2022-09-09T01:02:53;28.07;;;8.87;;
64649;SDS011;51061;45.258;38.112;2022-09-09T01:09:07;28.47;;;8.23;;
64649;SDS011;51061;45.258;38.112;2022-09-09T01:14:45;25.30;;;8.40;;
64649;SDS011;51061;45.258;38.112;2022-09-09T01:17:20;21.63;;;8.70;;
64649;SDS011;51061;45.258;38.112;2022-09-09T01:20:10;27.90;;;8.30;;
64649;SDS011;51061;45.258;38.112;2022-09-09T01:22:57;35.97;;;9.93;;
64649;SDS011;51061;45.258;38.112;2022-09-09T01:28:45;31.10;;;9.50;;
64649;SDS011;51061;45.258;38.112;2022-09-09T01:31:18;31.17;;;8.83;;
64649;SDS011;51061;45.258;38.112;2022-09-09T01:33:52;20.63;;;9.07;;
64649;SDS011;51061;45.258;38.112;2022-09-09T01:36:21;35.80;;;9.53;;
64649;SDS011;51061;45.258;38.112;2022-09-09T01:38:58;31.50;;;8.80;;
64649;SDS011;51061;45.258;38.112;2022-09-09T01:41:25;31.63;;;9.00;;
64649;SDS011;51061;45.258;38.112;2022-09-09T01:44:01;31.63;;;8.83;;
64649;SDS011;51061;45.258;38.112;2022-09-09T01:46:29;32.73;;;9.07;;
64649;SDS011;51061;45.258;38.112;2022-09-09T01:48:58;27.07;;;8.63;;
64649;SDS011;51061;45.258;38.112;2022-09-09T01:51:26;39.17;;;9.47;;
64649;SDS011;51061;45.258;38.112;2022-09-09T01:53:53;22.30;;;9.40;;
64649;SDS011;51061;45.258;38.112;2022-09-09T02:02:13;33.87;;;9.73;;
64649;SDS011;51061;45.258;38.112;2022-09-09T02:05:03;34.67;;;9.33;;
64649;SDS011;51061;45.258;38.112;2022-09-09T02:07:53;27.50;;;8.83;;
64649;SDS011;51061;45.258;38.112;2022-09-09T02:10:47;34.73;;;9.53;;
64649;SDS011;51061;45.258;38.112;2022-09-09T02:13:32;28.40;;;9.67;;
64649;SDS011;51061;45.258;38.112;2022-09-09T02:16:14;40.07;;;10.07;;
64649;SDS011;51061;45.258;38.112;2022-09-09T02:19:16;31.10;;;9.13;;
64649;SDS011;51061;45.258;38.112;2022-09-09T02:22:13;31.03;;;9.27;;
64649;SDS011;51061;45.258;38.112;2022-09-09T02:24:43;30.80;;;9.47;;
64649;SDS011;51061;45.258;38.112;2022-09-09T02:27:24;30.13;;;10.20;;
64649;SDS011;51061;45.258;38.112;2022-09-09T02:29:51;36.53;;;8.77;;
64649;SDS011;51061;45.258;38.112;2022-09-09T02:32:31;33.67;;;9.10;;
64649;SDS011;51061;45.258;38.112;2022-09-09T02:35:04;29.57;;;9.47;;
64649;SDS011;51061;45.258;38.112;2022-09-09T02:37:35;31.17;;;8.97;;
64649;SDS011;51061;45.258;38.112;2022-09-09T02:40:04;38.37;;;11.60;;
64649;SDS011;51061;45.258;38.112;2022-09-09T02:42:38;35.60;;;10.50;;
64649;SDS011;51061;45.258;38.112;2022-09-09T02:45:05;21.53;;;8.47;;
64649;SDS011;51061;45.258;38.112;2022-09-09T02:47:46;24.30;;;8.10;;
64649;SDS011;51061;45.258;38.112;2022-09-09T02:55:39;22.63;;;7.50;;
64649;SDS011;51061;45.258;38.112;2022-09-09T02:58:18;20.93;;;7.13;;
64649;SDS011;51061;45.258;38.112;2022-09-09T03:00:53;28.40;;;8.23;;
64649;SDS011;51061;45.258;38.112;2022-09-09T03:03:19;22.03;;;8.27;;
64649;SDS011;51061;45.258;38.112;2022-09-09T03:05:49;32.37;;;8.00;;
64649;SDS011;51061;45.258;38.112;2022-09-09T03:10:43;29.97;;;9.43;;
64649;SDS011;51061;45.258;38.112;2022-09-09T03:13:12;36.87;;;9.13;;
64649;SDS011;51061;45.258;38.112;2022-09-09T03:15:41;38.77;;;10.70;;
64649;SDS011;51061;45.258;38.112;2022-09-09T03:18:12;42.00;;;11.70;;
64649;SDS011;51061;45.258;38.112;2022-09-09T03:20:38;39.22;;;11.90;;
64649;SDS011;51061;45.258;38.112;2022-09-09T03:23:07;40.97;;;10.60;;
64649;SDS011;51061;45.258;38.112;2022-09-09T03:25:33;38.63;;;11.40;;
64649;SDS011;51061;45.258;38.112;2022-09-09T03:28:00;26.87;;;9.17;;
64649;SDS011;51061;45.258;38.112;2022-09-09T03:30:27;25.97;;;8.73;;
64649;SDS011;51061;45.258;38.112;2022-09-09T03:32:55;29.43;;;8.47;;
64649;SDS011;51061;45.258;38.112;2022-09-09T03:35:25;24.37;;;9.47;;
64649;SDS011;51061;45.258;38.112;2022-09-09T03:37:51;39.10;;;9.77;;
64649;SDS011;51061;45.258;38.112;2022-09-09T03:42:45;43.10;;;11.85;;
64649;SDS011;51061;45.258;38.112;2022-09-09T03:45:11;35.25;;;10.88;;
64649;SDS011;51061;45.258;38.112;2022-09-09T03:47:39;48.43;;;11.43;;
64649;SDS011;51061;45.258;38.112;2022-09-09T03:50:07;43.27;;;12.50;;
64649;SDS011;51061;45.258;38.112;2022-09-09T03:52:38;47.87;;;14.07;;
64649;SDS011;51061;45.258;38.112;2022-09-09T03:55:09;46.23;;;14.30;;
64649;SDS011;51061;45.258;38.112;2022-09-09T03:57:36;45.23;;;13.57;;
64649;SDS011;51061;45.258;38.112;2022-09-09T04:00:06;48.37;;;14.53;;
64649;SDS011;51061;45.258;38.112;2022-09-09T04:02:41;46.17;;;13.18;;
64649;SDS011;51061;45.258;38.112;2022-09-09T04:05:11;54.80;;;13.87;;
64649;SDS011;51061;45.258;38.112;2022-09-09T04:07:41;61.57;;;14.97;;
64649;SDS011;51061;45.258;38.112;2022-09-09T04:10:08;48.00;;;13.13;;
64649;SDS011;51061;45.258;38.112;2022-09-09T04:12:37;41.03;;;10.87;;
64649;SDS011;51061;45.258;38.112;2022-09-09T04:15:03;59.72;;;18.10;;
64649;SDS011;51061;45.258;38.112;2022-09-09T04:17:29;69.82;;;21.67;;
64649;SDS011;51061;45.258;38.112;2022-09-09T04:19:56;66.18;;;17.85;;
64649;SDS011;51061;45.258;38.112;2022-09-09T04:22:23;50.63;;;15.47;;
64649;SDS011;51061;45.258;38.112;2022-09-09T04:24:49;66.22;;;17.90;;
64649;SDS011;51061;45.258;38.112;2022-09-09T04:27:17;67.68;;;17.52;;
64649;SDS011;51061;45.258;38.112;2022-09-09T04:29:45;73.75;;;18.35;;
64649;SDS011;51061;45.258;38.112;2022-09-09T04:32:12;72.28;;;19.17;;
64649;SDS011;51061;45.258;38.112;2022-09-09T04:34:39;74.78;;;19.48;;
64649;SDS011;51061;45.258;38.112;2022-09-09T04:37:09;111.15;;;29.73;;
64649;SDS011;51061;45.258;38.112;2022-09-09T04:39:36;97.70;;;26.35;;
64649;SDS011;51061;45.258;38.112;2022-09-09T04:42:02;81.32;;;20.00;;
64649;SDS011;51061;45.258;38.112;2022-09-09T04:46:55;92.05;;;22.52;;
64649;SDS011;51061;45.258;38.112;2022-09-09T04:49:22;81.95;;;20.85;;
64649;SDS011;51061;45.258;38.112;2022-09-09T04:51:49;73.65;;;18.38;;
64649;SDS011;51061;45.258;38.112;2022-09-09T04:54:16;68.13;;;15.73;;
64649;SDS011;51061;45.258;38.112;2022-09-09T04:56:43;54.90;;;11.63;;
64649;SDS011;51061;45.258;38.112;2022-09-09T04:59:10;35.80;;;9.30;;
64649;SDS011;51061;45.258;38.112;2022-09-09T05:01:43;51.47;;;10.40;;
64649;SDS011;51061;45.258;38.112;2022-09-09T05:04:10;58.65;;;15.90;;
64649;SDS011;51061;45.258;38.112;2022-09-09T05:06:36;36.17;;;10.68;;
64649;SDS011;51061;45.258;38.112;2022-09-09T05:09:03;41.70;;;11.63;;
64649;SDS011;51061;45.258;38.112;2022-09-09T05:11:30;41.20;;;11.25;;
64649;SDS011;51061;45.258;38.112;2022-09-09T05:14:23;41.05;;;10.90;;
64649;SDS011;51061;45.258;38.112;2022-09-09T05:16:49;44.50;;;12.60;;
64649;SDS011;51061;45.258;38.112;2022-09-09T05:19:16;52.17;;;14.45;;
64649;SDS011;51061;45.258;38.112;2022-09-09T05:21:47;46.85;;;12.35;;
64649;SDS011;51061;45.258;38.112;2022-09-09T05:24:16;51.90;;;12.70;;
64649;SDS011;51061;45.258;38.112;2022-09-09T05:26:44;37.45;;;10.32;;
64649;SDS011;51061;45.258;38.112;2022-09-09T05:29:10;41.85;;;9.93;;
64649;SDS011;51061;45.258;38.112;2022-09-09T05:31:37;23.85;;;7.82;;
64649;SDS011;51061;45.258;38.112;2022-09-09T05:34:08;29.88;;;7.82;;
64649;SDS011;51061;45.258;38.112;2022-09-09T05:36:35;37.00;;;7.65;;
64649;SDS011;51061;45.258;38.112;2022-09-09T05:39:01;27.25;;;8.40;;
64649;SDS011;51061;45.258;38.112;2022-09-09T05:41:29;29.10;;;7.63;;
64649;SDS011;51061;45.258;38.112;2022-09-09T05:43:59;26.30;;;7.63;;
64649;SDS011;51061;45.258;38.112;2022-09-09T05:46:26;43.50;;;11.27;;
64649;SDS011;51061;45.258;38.112;2022-09-09T05:48:54;39.13;;;9.25;;
64649;SDS011;51061;45.258;38.112;2022-09-09T05:51:27;48.90;;;12.95;;
64649;SDS011;51061;45.258;38.112;2022-09-09T05:54:01;51.72;;;11.70;;
64649;SDS011;51061;45.258;38.112;2022-09-09T05:56:31;30.98;;;8.57;;
64649;SDS011;51061;45.258;38.112;2022-09-09T05:58:58;27.10;;;7.60;;
64649;SDS011;51061;45.258;38.112;2022-09-09T06:01:27;40.83;;;8.90;;
64649;SDS011;51061;45.258;38.112;2022-09-09T06:03:56;24.48;;;7.03;;
64649;SDS011;51061;45.258;38.112;2022-09-09T06:06:24;22.67;;;6.93;;
64649;SDS011;51061;45.258;38.112;2022-09-09T06:08:55;26.25;;;7.07;;
64649;SDS011;51061;45.258;38.112;2022-09-09T06:11:26;24.95;;;7.00;;
64649;SDS011;51061;45.258;38.112;2022-09-09T06:13:57;26.73;;;6.30;;
64649;SDS011;51061;45.258;38.112;2022-09-09T06:16:25;21.73;;;5.30;;
64649;SDS011;51061;45.258;38.112;2022-09-09T06:18:53;19.15;;;5.43;;
64649;SDS011;51061;45.258;38.112;2022-09-09T06:21:23;20.85;;;5.88;;
64649;SDS011;51061;45.258;38.112;2022-09-09T06:23:51;18.15;;;5.32;;
64649;SDS011;51061;45.258;38.112;2022-09-09T06:28:50;18.60;;;4.35;;
64649;SDS011;51061;45.258;38.112;2022-09-09T06:31:19;22.58;;;4.90;;
64649;SDS011;51061;45.258;38.112;2022-09-09T06:33:48;26.23;;;5.43;;
64649;SDS011;51061;45.258;38.112;2022-09-09T06:36:17;30.95;;;6.75;;
64649;SDS011;51061;45.258;38.112;2022-09-09T06:38:45;27.10;;;6.95;;
64649;SDS011;51061;45.258;38.112;2022-09-09T06:41:13;32.90;;;8.27;;
64649;SDS011;51061;45.258;38.112;2022-09-09T06:43:44;23.98;;;5.82;;
64649;SDS011;51061;45.258;38.112;2022-09-09T06:46:12;20.38;;;5.55;;
64649;SDS011;51061;45.258;38.112;2022-09-09T06:48:40;19.92;;;5.70;;
64649;SDS011;51061;45.258;38.112;2022-09-09T06:51:10;18.90;;;4.28;;
64649;SDS011;51061;45.258;38.112;2022-09-09T06:53:42;17.92;;;4.75;;
64649;SDS011;51061;45.258;38.112;2022-09-09T06:58:38;20.45;;;5.10;;
64649;SDS011;51061;45.258;38.112;2022-09-09T07:01:20;13.55;;;5.25;;
64649;SDS011;51061;45.258;38.112;2022-09-09T07:03:49;22.23;;;5.20;;
64649;SDS011;51061;45.258;38.112;2022-09-09T07:06:38;28.48;;;5.57;;
64649;SDS011;51061;45.258;38.112;2022-09-09T07:09:06;21.38;;;5.20;;
64649;SDS011;51061;45.258;38.112;2022-09-09T07:11:36;19.77;;;4.90;;
64649;SDS011;51061;45.258;38.112;2022-09-09T07:14:04;17.65;;;4.43;;
64649;SDS011;51061;45.258;38.112;2022-09-09T07:16:31;20.90;;;4.63;;
64649;SDS011;51061;45.258;38.112;2022-09-09T07:19:00;17.60;;;4.90;;
64649;SDS011;51061;45.258;38.112;2022-09-09T07:21:29;19.00;;;5.30;;
64649;SDS011;51061;45.258;38.112;2022-09-09T07:23:56;24.83;;;4.80;;
64649;SDS011;51061;45.258;38.112;2022-09-09T07:26:24;14.38;;;4.40;;
64649;SDS011;51061;45.258;38.112;2022-09-09T07:28:52;25.90;;;4.82;;
64649;SDS011;51061;45.258;38.112;2022-09-09T07:31:22;26.52;;;5.32;;
64649;SDS011;51061;45.258;38.112;2022-09-09T07:33:50;19.65;;;4.68;;
64649;SDS011;51061;45.258;38.112;2022-09-09T07:39:04;19.00;;;4.85;;
64649;SDS011;51061;45.258;38.112;2022-09-09T07:41:34;18.80;;;4.75;;
64649;SDS011;51061;45.258;38.112;2022-09-09T07:44:05;20.88;;;4.82;;
64649;SDS011;51061;45.258;38.112;2022-09-09T07:46:33;19.73;;;5.57;;
64649;SDS011;51061;45.258;38.112;2022-09-09T07:49:01;15.75;;;5.03;;
64649;SDS011;51061;45.258;38.112;2022-09-09T07:51:31;24.20;;;5.07;;
64649;SDS011;51061;45.258;38.112;2022-09-09T07:54:00;22.83;;;4.88;;
64649;SDS011;51061;45.258;38.112;2022-09-09T07:56:30;20.70;;;5.00;;
64649;SDS011;51061;45.258;38.112;2022-09-09T07:58:58;21.23;;;4.38;;
64649;SDS011;51061;45.258;38.112;2022-09-09T08:01:29;21.55;;;5.10;;
64649;SDS011;51061;45.258;38.112;2022-09-09T08:03:59;18.40;;;4.38;;
64649;SDS011;51061;45.258;38.112;2022-09-09T08:06:32;14.20;;;4.38;;
64649;SDS011;51061;45.258;38.112;2022-09-09T08:09:00;17.27;;;4.68;;
64649;SDS011;51061;45.258;38.112;2022-09-09T08:11:28;18.38;;;4.55;;
64649;SDS011;51061;45.258;38.112;2022-09-09T08:13:55;21.80;;;4.63;;
64649;SDS011;51061;45.258;38.112;2022-09-09T08:16:23;19.98;;;4.85;;
64649;SDS011;51061;45.258;38.112;2022-09-09T08:18:51;21.02;;;4.40;;
64649;SDS011;51061;45.258;38.112;2022-09-09T08:21:20;16.80;;;4.18;;
64649;SDS011;51061;45.258;38.112;2022-09-09T08:23:50;31.73;;;4.90;;
64649;SDS011;51061;45.258;38.112;2022-09-09T08:28:49;19.20;;;4.72;;
64649;SDS011;51061;45.258;38.112;2022-09-09T08:31:21;17.05;;;4.35;;
64649;SDS011;51061;45.258;38.112;2022-09-09T08:33:54;14.23;;;4.43;;
64649;SDS011;51061;45.258;38.112;2022-09-09T08:36:22;13.25;;;3.83;;
64649;SDS011;51061;45.258;38.112;2022-09-09T08:38:52;19.13;;;4.20;;
64649;SDS011;51061;45.258;38.112;2022-09-09T08:50:08;22.60;;;4.97;;
64649;SDS011;51061;45.258;38.112;2022-09-09T08:58:20;20.02;;;3.97;;
64649;SDS011;51061;45.258;38.112;2022-09-09T09:06:31;18.50;;;3.90;;
64649;SDS011;51061;45.258;38.112;2022-09-09T09:09:27;18.90;;;3.72;;
64649;SDS011;51061;45.258;38.112;2022-09-09T09:11:58;18.83;;;4.43;;
64649;SDS011;51061;45.258;38.112;2022-09-09T09:14:33;14.77;;;3.80;;
64649;SDS011;51061;45.258;38.112;2022-09-09T09:17:04;23.40;;;5.30;;
64649;SDS011;51061;45.258;38.112;2022-09-09T09:19:33;14.38;;;4.68;;
64649;SDS011;51061;45.258;38.112;2022-09-09T09:24:54;20.80;;;7.60;;
64649;SDS011;51061;45.258;38.112;2022-09-09T09:27:35;22.98;;;7.78;;
64649;SDS011;51061;45.258;38.112;2022-09-09T09:33:38;25.60;;;8.50;;
64649;SDS011;51061;45.258;38.112;2022-09-09T09:35:52;25.58;;;7.97;;
64649;SDS011;51061;45.258;38.112;2022-09-09T09:38:23;22.67;;;10.05;;
64649;SDS011;51061;45.258;38.112;2022-09-09T09:40:56;22.65;;;12.32;;
64649;SDS011;51061;45.258;38.112;2022-09-09T09:43:31;23.55;;;10.48;;
64649;SDS011;51061;45.258;38.112;2022-09-09T09:46:16;24.15;;;9.60;;
64649;SDS011;51061;45.258;38.112;2022-09-09T09:49:04;16.52;;;7.97;;
64649;SDS011;51061;45.258;38.112;2022-09-09T09:51:32;24.25;;;8.80;;
64649;SDS011;51061;45.258;38.112;2022-09-09T09:56:39;19.27;;;8.48;;
64649;SDS011;51061;45.258;38.112;2022-09-09T10:01:46;21.17;;;8.30;;
64649;SDS011;51061;45.258;38.112;2022-09-09T10:04:22;20.50;;;9.77;;
64649;SDS011;51061;45.258;38.112;2022-09-09T10:06:51;24.23;;;11.25;;
64649;SDS011;51061;45.258;38.112;2022-09-09T10:09:20;35.30;;;12.00;;
64649;SDS011;51061;45.258;38.112;2022-09-09T10:12:15;24.67;;;11.45;;
64649;SDS011;51061;45.258;38.112;2022-09-09T10:20:59;23.65;;;11.52;;
64649;SDS011;51061;45.258;38.112;2022-09-09T10:26:51;20.05;;;11.98;;
64649;SDS011;51061;45.258;38.112;2022-09-09T10:29:44;29.05;;;13.75;;
64649;SDS011;51061;45.258;38.112;2022-09-09T10:37:58;30.55;;;18.52;;
64649;SDS011;51061;45.258;38.112;2022-09-09T10:48:28;41.22;;;22.02;;
64649;SDS011;51061;45.258;38.112;2022-09-09T10:56:42;38.63;;;20.00;;
64649;SDS011;51061;45.258;38.112;2022-09-09T10:59:16;75.78;;;32.55;;
64649;SDS011;51061;45.258;38.112;2022-09-09T11:01:57;34.40;;;24.42;;
64649;SDS011;51061;45.258;38.112;2022-09-09T11:04:50;42.35;;;22.27;;
64649;SDS011;51061;45.258;38.112;2022-09-09T11:07:28;33.92;;;20.60;;
64649;SDS011;51061;45.258;38.112;2022-09-09T11:13:08;37.03;;;19.08;;
64649;SDS011;51061;45.258;38.112;2022-09-09T11:15:46;33.67;;;17.60;;
64649;SDS011;51061;45.258;38.112;2022-09-09T11:18:19;24.95;;;16.75;;
64649;SDS011;51061;45.258;38.112;2022-09-09T11:20:47;33.20;;;17.80;;
64649;SDS011;51061;45.258;38.112;2022-09-09T11:23:17;22.75;;;13.10;;
64649;SDS011;51061;45.258;38.112;2022-09-09T11:25:52;20.17;;;12.67;;
64649;SDS011;51061;45.258;38.112;2022-09-09T11:28:40;21.00;;;12.68;;
64649;SDS011;51061;45.258;38.112;2022-09-09T11:40:59;25.45;;;10.52;;
64649;SDS011;51061;45.258;38.112;2022-09-09T11:43:31;22.75;;;10.35;;
64649;SDS011;51061;45.258;38.112;2022-09-09T11:46:04;23.50;;;10.45;;
64649;SDS011;51061;45.258;38.112;2022-09-09T11:48:40;18.20;;;10.20;;
64649;SDS011;51061;45.258;38.112;2022-09-09T11:53:54;17.65;;;9.07;;
64649;SDS011;51061;45.258;38.112;2022-09-09T11:58:56;19.48;;;8.90;;
64649;SDS011;51061;45.258;38.112;2022-09-09T12:01:29;13.98;;;8.52;;
64649;SDS011;51061;45.258;38.112;2022-09-09T12:06:45;15.05;;;8.80;;
64649;SDS011;51061;45.258;38.112;2022-09-09T12:11:51;13.68;;;7.10;;
64649;SDS011;51061;45.258;38.112;2022-09-09T12:14:34;24.63;;;6.75;;
64649;SDS011;51061;45.258;38.112;2022-09-09T12:17:20;20.50;;;6.95;;
64649;SDS011;51061;45.258;38.112;2022-09-09T12:19:48;22.65;;;7.00;;
64649;SDS011;51061;45.258;38.112;2022-09-09T12:25:31;26.60;;;7.00;;
64649;SDS011;51061;45.258;38.112;2022-09-09T12:30:53;13.57;;;6.72;;
64649;SDS011;51061;45.258;38.112;2022-09-09T12:33:43;26.17;;;5.47;;
64649;SDS011;51061;45.258;38.112;2022-09-09T12:36:11;10.98;;;4.57;;
64649;SDS011;51061;45.258;38.112;2022-09-09T12:38:41;12.18;;;4.70;;
64649;SDS011;51061;45.258;38.112;2022-09-09T12:41:24;20.55;;;4.55;;
64649;SDS011;51061;45.258;38.112;2022-09-09T12:44:03;45.92;;;8.65;;
64649;SDS011;51061;45.258;38.112;2022-09-09T12:46:43;29.05;;;7.05;;
64649;SDS011;51061;45.258;38.112;2022-09-09T12:51:49;17.05;;;4.95;;
64649;SDS011;51061;45.258;38.112;2022-09-09T12:54:15;21.00;;;4.88;;
64649;SDS011;51061;45.258;38.112;2022-09-09T12:56:44;14.13;;;4.10;;
64649;SDS011;51061;45.258;38.112;2022-09-09T13:04:47;17.65;;;5.47;;
64649;SDS011;51061;45.258;38.112;2022-09-09T13:07:16;25.25;;;5.20;;
64649;SDS011;51061;45.258;38.112;2022-09-09T13:09:44;24.88;;;4.53;;
64649;SDS011;51061;45.258;38.112;2022-09-09T13:12:44;10.98;;;4.35;;
64649;SDS011;51061;45.258;38.112;2022-09-09T13:15:04;14.43;;;3.90;;
64649;SDS011;51061;45.258;38.112;2022-09-09T13:18:00;18.00;;;4.22;;
64649;SDS011;51061;45.258;38.112;2022-09-09T13:20:35;36.45;;;11.05;;
64649;SDS011;51061;45.258;38.112;2022-09-09T13:23:02;7.60;;;3.50;;
64649;SDS011;51061;45.258;38.112;2022-09-09T13:25:28;11.57;;;3.20;;
64649;SDS011;51061;45.258;38.112;2022-09-09T13:30:33;10.20;;;3.80;;
64649;SDS011;51061;45.258;38.112;2022-09-09T13:38:36;20.70;;;5.78;;
64649;SDS011;51061;45.258;38.112;2022-09-09T13:41:07;12.85;;;5.25;;
64649;SDS011;51061;45.258;38.112;2022-09-09T13:43:45;19.77;;;4.38;;
64649;SDS011;51061;45.258;38.112;2022-09-09T13:46:27;12.98;;;3.40;;
64649;SDS011;51061;45.258;38.112;2022-09-09T13:51:38;25.02;;;5.15;;
64649;SDS011;51061;45.258;38.112;2022-09-09T13:54:09;68.60;;;10.48;;
64649;SDS011;51061;45.258;38.112;2022-09-09T13:56:37;38.75;;;5.75;;
64649;SDS011;51061;45.258;38.112;2022-09-09T13:59:04;31.60;;;5.20;;
64649;SDS011;51061;45.258;38.112;2022-09-09T14:01:34;45.70;;;7.70;;
64649;SDS011;51061;45.258;38.112;2022-09-09T14:04:00;34.45;;;4.97;;
64649;SDS011;51061;45.258;38.112;2022-09-09T14:06:27;57.88;;;6.75;;
64649;SDS011;51061;45.258;38.112;2022-09-09T14:08:54;38.08;;;7.80;;
64649;SDS011;51061;45.258;38.112;2022-09-09T14:11:21;40.40;;;5.72;;
64649;SDS011;51061;45.258;38.112;2022-09-09T14:13:47;25.67;;;3.38;;
64649;SDS011;51061;45.258;38.112;2022-09-09T14:16:15;19.85;;;3.92;;
64649;SDS011;51061;45.258;38.112;2022-09-09T14:18:43;36.22;;;6.38;;
64649;SDS011;51061;45.258;38.112;2022-09-09T14:21:09;33.40;;;6.80;;
64649;SDS011;51061;45.258;38.112;2022-09-09T14:23:36;36.42;;;4.60;;
64649;SDS011;51061;45.258;38.112;2022-09-09T14:26:04;28.27;;;3.92;;
64649;SDS011;51061;45.258;38.112;2022-09-09T14:28:33;16.17;;;3.35;;
64649;SDS011;51061;45.258;38.112;2022-09-09T14:31:02;21.00;;;4.05;;
64649;SDS011;51061;45.258;38.112;2022-09-09T14:33:29;15.32;;;4.03;;
64649;SDS011;51061;45.258;38.112;2022-09-09T14:35:59;29.13;;;4.72;;
64649;SDS011;51061;45.258;38.112;2022-09-09T14:38:31;47.88;;;5.38;;
64649;SDS011;51061;45.258;38.112;2022-09-09T14:41:00;21.42;;;3.20;;
64649;SDS011;51061;45.258;38.112;2022-09-09T14:43:28;29.38;;;5.43;;
64649;SDS011;51061;45.258;38.112;2022-09-09T14:46:03;33.78;;;6.55;;
64649;SDS011;51061;45.258;38.112;2022-09-09T14:48:31;56.13;;;10.00;;
64649;SDS011;51061;45.258;38.112;2022-09-09T14:51:08;44.83;;;4.75;;
64649;SDS011;51061;45.258;38.112;2022-09-09T14:53:36;31.35;;;4.53;;
64649;SDS011;51061;45.258;38.112;2022-09-09T14:56:06;12.48;;;2.65;;
64649;SDS011;51061;45.258;38.112;2022-09-09T14:58:33;17.70;;;3.67;;
64649;SDS011;51061;45.258;38.112;2022-09-09T15:01:04;17.13;;;3.50;;
64649;SDS011;51061;45.258;38.112;2022-09-09T15:03:31;14.45;;;3.67;;
64649;SDS011;51061;45.258;38.112;2022-09-09T15:05:58;21.65;;;3.47;;
64649;SDS011;51061;45.258;38.112;2022-09-09T15:08:29;21.63;;;3.80;;
64649;SDS011;51061;45.258;38.112;2022-09-09T15:10:59;16.10;;;3.40;;
64649;SDS011;51061;45.258;38.112;2022-09-09T15:13:28;28.17;;;3.85;;
64649;SDS011;51061;45.258;38.112;2022-09-09T15:15:54;18.58;;;3.65;;
64649;SDS011;51061;45.258;38.112;2022-09-09T15:18:20;19.52;;;3.92;;
64649;SDS011;51061;45.258;38.112;2022-09-09T15:20:47;12.57;;;3.38;;
64649;SDS011;51061;45.258;38.112;2022-09-09T15:23:13;21.25;;;3.47;;
64649;SDS011;51061;45.258;38.112;2022-09-09T15:25:52;19.27;;;3.67;;
64649;SDS011;51061;45.258;38.112;2022-09-09T15:28:19;12.73;;;3.28;;
64649;SDS011;51061;45.258;38.112;2022-09-09T15:30:48;25.45;;;4.35;;
64649;SDS011;51061;45.258;38.112;2022-09-09T15:33:15;24.15;;;4.55;;
64649;SDS011;51061;45.258;38.112;2022-09-09T15:35:41;17.27;;;4.40;;
64649;SDS011;51061;45.258;38.112;2022-09-09T15:38:07;17.50;;;5.35;;
64649;SDS011;51061;45.258;38.112;2022-09-09T15:40:33;27.17;;;6.10;;
64649;SDS011;51061;45.258;38.112;2022-09-09T15:42:59;30.92;;;6.82;;
64649;SDS011;51061;45.258;38.112;2022-09-09T15:45:25;28.35;;;7.70;;
64649;SDS011;51061;45.258;38.112;2022-09-09T15:47:56;35.38;;;8.13;;
64649;SDS011;51061;45.258;38.112;2022-09-09T15:50:22;30.58;;;7.63;;
64649;SDS011;51061;45.258;38.112;2022-09-09T15:52:48;38.33;;;9.35;;
64649;SDS011;51061;45.258;38.112;2022-09-09T15:55:14;40.95;;;7.50;;
64649;SDS011;51061;45.258;38.112;2022-09-09T15:57:40;27.88;;;6.93;;
64649;SDS011;51061;45.258;38.112;2022-09-09T16:00:06;34.20;;;6.35;;
64649;SDS011;51061;45.258;38.112;2022-09-09T16:02:33;35.90;;;9.57;;
64649;SDS011;51061;45.258;38.112;2022-09-09T16:04:59;55.55;;;15.90;;
64649;SDS011;51061;45.258;38.112;2022-09-09T16:07:26;65.40;;;19.65;;
64649;SDS011;51061;45.258;38.112;2022-09-09T16:09:52;55.63;;;17.50;;
64649;SDS011;51061;45.258;38.112;2022-09-09T16:12:19;58.08;;;19.92;;
64649;SDS011;51061;45.258;38.112;2022-09-09T16:14:45;68.60;;;23.42;;
64649;SDS011;51061;45.258;38.112;2022-09-09T16:17:11;77.68;;;23.52;;
64649;SDS011;51061;45.258;38.112;2022-09-09T16:19:37;63.60;;;20.23;;
64649;SDS011;51061;45.258;38.112;2022-09-09T16:22:03;62.47;;;19.95;;
64649;SDS011;51061;45.258;38.112;2022-09-09T16:24:31;57.25;;;18.70;;
64649;SDS011;51061;45.258;38.112;2022-09-09T16:26:58;73.97;;;23.88;;
64649;SDS011;51061;45.258;38.112;2022-09-09T16:29:24;122.90;;;41.00;;
64649;SDS011;51061;45.258;38.112;2022-09-09T16:31:52;114.57;;;36.92;;
64649;SDS011;51061;45.258;38.112;2022-09-09T16:34:19;136.07;;;41.67;;
64649;SDS011;51061;45.258;38.112;2022-09-09T16:36:46;112.22;;;34.95;;
64649;SDS011;51061;45.258;38.112;2022-09-09T16:39:15;107.28;;;35.22;;
64649;SDS011;51061;45.258;38.112;2022-09-09T16:41:43;104.78;;;35.17;;
64649;SDS011;51061;45.258;38.112;2022-09-09T16:44:10;94.97;;;33.95;;
64649;SDS011;51061;45.258;38.112;2022-09-09T16:46:38;104.55;;;38.10;;
64649;SDS011;51061;45.258;38.112;2022-09-09T16:49:08;111.43;;;38.70;;
64649;SDS011;51061;45.258;38.112;2022-09-09T16:51:39;96.55;;;33.50;;
64649;SDS011;51061;45.258;38.112;2022-09-09T16:54:08;86.68;;;26.27;;
64649;SDS011;51061;45.258;38.112;2022-09-09T16:56:37;65.47;;;19.90;;
64649;SDS011;51061;45.258;38.112;2022-09-09T16:59:10;69.15;;;20.27;;
64649;SDS011;51061;45.258;38.112;2022-09-09T17:01:40;123.07;;;43.08;;
64649;SDS011;51061;45.258;38.112;2022-09-09T17:04:41;142.80;;;52.63;;
64649;SDS011;51061;45.258;38.112;2022-09-09T17:07:00;117.90;;;38.35;;
64649;SDS011;51061;45.258;38.112;2022-09-09T17:09:28;83.88;;;26.63;;
64649;SDS011;51061;45.258;38.112;2022-09-09T17:11:56;60.47;;;16.88;;
64649;SDS011;51061;45.258;38.112;2022-09-09T17:14:24;53.67;;;17.20;;
64649;SDS011;51061;45.258;38.112;2022-09-09T17:16:50;65.28;;;19.85;;
64649;SDS011;51061;45.258;38.112;2022-09-09T17:19:17;50.28;;;13.70;;
64649;SDS011;51061;45.258;38.112;2022-09-09T17:21:45;40.13;;;10.60;;
64649;SDS011;51061;45.258;38.112;2022-09-09T17:24:12;25.15;;;7.68;;